sensor_id;sensor_type;location;lat;lon;timestamp;temperature;humidity
5276;DHT22;2661;50.786;12.728;2023-07-13T00:02:02;19.90;1.00
5276;DHT22;2661;50.786;12.728;2023-07-13T00:04:28;19.80;1.00
5276;DHT22;2661;50.786;12.728;2023-07-13T00:06:59;19.80;1.00
5276;DHT22;2661;50.786;12.728;2023-07-13T00:09:25;19.80;1.00
5276;DHT22;2661;50.786;12.728;2023-07-13T00:11:53;19.70;1.00
5276;DHT22;2661;50.786;12.728;2023-07-13T00:14:20;19.70;1.00
5276;DHT22;2661;50.786;12.728;2023-07-13T00:16:47;19.60;1.00
5276;DHT22;2661;50.786;12.728;2023-07-13T00:19:14;19.60;1.00
5276;DHT22;2661;50.786;12.728;2023-07-13T00:21:41;19.40;1.00
5276;DHT22;2661;50.786;12.728;2023-07-13T00:24:08;19.40;1.00
5276;DHT22;2661;50.786;12.728;2023-07-13T00:26:36;19.30;1.00
5276;DHT22;2661;50.786;12.728;2023-07-13T00:29:03;19.20;1.00
5276;DHT22;2661;50.786;12.728;2023-07-13T00:31:30;19.10;1.00
5276;DHT22;2661;50.786;12.728;2023-07-13T00:33:57;19.00;1.00
5276;DHT22;2661;50.786;12.728;2023-07-13T00:36:23;19.00;1.00
5276;DHT22;2661;50.786;12.728;2023-07-13T00:38:50;19.00;1.00
5276;DHT22;2661;50.786;12.728;2023-07-13T00:41:16;19.00;1.00
5276;DHT22;2661;50.786;12.728;2023-07-13T00:43:43;19.00;1.00
5276;DHT22;2661;50.786;12.728;2023-07-13T00:46:32;19.00;1.00
5276;DHT22;2661;50.786;12.728;2023-07-13T00:48:58;19.00;1.00
5276;DHT22;2661;50.786;12.728;2023-07-13T00:51:34;19.00;1.00
5276;DHT22;2661;50.786;12.728;2023-07-13T00:54:03;19.00;1.00
5276;DHT22;2661;50.786;12.728;2023-07-13T00:56:31;18.90;1.00
5276;DHT22;2661;50.786;12.728;2023-07-13T00:58:59;18.90;1.00
5276;DHT22;2661;50.786;12.728;2023-07-13T01:01:26;18.90;1.00
5276;DHT22;2661;50.786;12.728;2023-07-13T01:03:53;18.80;1.00
5276;DHT22;2661;50.786;12.728;2023-07-13T01:06:20;18.80;1.00
5276;DHT22;2661;50.786;12.728;2023-07-13T01:08:47;18.80;84.50
5276;DHT22;2661;50.786;12.728;2023-07-13T01:11:17;18.80;99.90
5276;DHT22;2661;50.786;12.728;2023-07-13T01:13:44;18.70;1.00
5276;DHT22;2661;50.786;12.728;2023-07-13T01:16:13;18.70;1.00
5276;DHT22;2661;50.786;12.728;2023-07-13T01:18:41;18.70;1.00
5276;DHT22;2661;50.786;12.728;2023-07-13T01:21:07;18.60;1.00
5276;DHT22;2661;50.786;12.728;2023-07-13T01:23:34;18.60;1.00
5276;DHT22;2661;50.786;12.728;2023-07-13T01:26:01;18.60;1.00
5276;DHT22;2661;50.786;12.728;2023-07-13T01:28:28;18.60;1.00
5276;DHT22;2661;50.786;12.728;2023-07-13T01:30:55;18.60;1.00
5276;DHT22;2661;50.786;12.728;2023-07-13T01:33:22;18.50;1.00
5276;DHT22;2661;50.786;12.728;2023-07-13T01:35:49;18.50;1.00
5276;DHT22;2661;50.786;12.728;2023-07-13T01:38:18;18.50;1.00
5276;DHT22;2661;50.786;12.728;2023-07-13T01:40:45;18.50;1.00
5276;DHT22;2661;50.786;12.728;2023-07-13T01:43:12;18.50;1.00
5276;DHT22;2661;50.786;12.728;2023-07-13T01:45:39;18.50;1.00
5276;DHT22;2661;50.786;12.728;2023-07-13T01:48:06;18.40;1.00
5276;DHT22;2661;50.786;12.728;2023-07-13T01:50:35;18.30;1.00
5276;DHT22;2661;50.786;12.728;2023-07-13T01:53:02;18.30;1.00
5276;DHT22;2661;50.786;12.728;2023-07-13T01:55:29;18.30;1.00
5276;DHT22;2661;50.786;12.728;2023-07-13T01:57:56;18.30;1.00
5276;DHT22;2661;50.786;12.728;2023-07-13T02:00:23;18.30;1.00
5276;DHT22;2661;50.786;12.728;2023-07-13T02:02:51;18.30;1.00
5276;DHT22;2661;50.786;12.728;2023-07-13T02:05:18;18.30;1.00
5276;DHT22;2661;50.786;12.728;2023-07-13T02:07:45;18.30;1.00
5276;DHT22;2661;50.786;12.728;2023-07-13T02:10:12;18.30;1.00
5276;DHT22;2661;50.786;12.728;2023-07-13T02:12:38;18.30;1.00
5276;DHT22;2661;50.786;12.728;2023-07-13T02:15:05;18.30;1.00
5276;DHT22;2661;50.786;12.728;2023-07-13T02:17:32;18.20;1.00
5276;DHT22;2661;50.786;12.728;2023-07-13T02:19:59;18.20;1.00
5276;DHT22;2661;50.786;12.728;2023-07-13T02:22:25;18.20;1.00
5276;DHT22;2661;50.786;12.728;2023-07-13T02:24:52;18.20;1.00
5276;DHT22;2661;50.786;12.728;2023-07-13T02:27:19;18.10;1.00
5276;DHT22;2661;50.786;12.728;2023-07-13T02:29:45;18.10;1.00
5276;DHT22;2661;50.786;12.728;2023-07-13T02:32:12;18.10;1.00
5276;DHT22;2661;50.786;12.728;2023-07-13T02:34:40;18.20;1.00
5276;DHT22;2661;50.786;12.728;2023-07-13T02:37:08;18.10;1.00
5276;DHT22;2661;50.786;12.728;2023-07-13T02:39:34;18.10;1.00
5276;DHT22;2661;50.786;12.728;2023-07-13T02:42:01;18.10;1.00
5276;DHT22;2661;50.786;12.728;2023-07-13T02:44:27;18.10;1.00
5276;DHT22;2661;50.786;12.728;2023-07-13T02:46:54;18.10;1.00
5276;DHT22;2661;50.786;12.728;2023-07-13T02:49:21;18.10;1.00
5276;DHT22;2661;50.786;12.728;2023-07-13T02:51:48;18.00;1.00
5276;DHT22;2661;50.786;12.728;2023-07-13T02:54:14;18.10;1.00
5276;DHT22;2661;50.786;12.728;2023-07-13T02:56:41;18.00;1.00
5276;DHT22;2661;50.786;12.728;2023-07-13T02:59:09;18.10;1.00
5276;DHT22;2661;50.786;12.728;2023-07-13T03:01:37;18.10;1.00
5276;DHT22;2661;50.786;12.728;2023-07-13T03:04:04;18.10;1.00
5276;DHT22;2661;50.786;12.728;2023-07-13T03:06:31;18.00;1.00
5276;DHT22;2661;50.786;12.728;2023-07-13T03:08:58;18.00;1.00
5276;DHT22;2661;50.786;12.728;2023-07-13T03:11:26;18.00;1.00
5276;DHT22;2661;50.786;12.728;2023-07-13T03:13:53;18.00;1.00
5276;DHT22;2661;50.786;12.728;2023-07-13T03:16:20;17.90;1.00
5276;DHT22;2661;50.786;12.728;2023-07-13T03:18:47;17.90;1.00
5276;DHT22;2661;50.786;12.728;2023-07-13T03:21:14;17.90;1.00
5276;DHT22;2661;50.786;12.728;2023-07-13T03:23:40;17.90;1.00
5276;DHT22;2661;50.786;12.728;2023-07-13T03:26:08;17.80;1.00
5276;DHT22;2661;50.786;12.728;2023-07-13T03:28:36;17.90;1.00
5276;DHT22;2661;50.786;12.728;2023-07-13T03:31:04;17.90;1.00
5276;DHT22;2661;50.786;12.728;2023-07-13T03:33:32;17.80;1.00
5276;DHT22;2661;50.786;12.728;2023-07-13T03:35:58;17.70;1.00
5276;DHT22;2661;50.786;12.728;2023-07-13T03:38:25;17.70;1.00
5276;DHT22;2661;50.786;12.728;2023-07-13T03:40:53;17.70;1.00
5276;DHT22;2661;50.786;12.728;2023-07-13T03:43:19;17.80;1.00
5276;DHT22;2661;50.786;12.728;2023-07-13T03:45:46;17.90;1.00
5276;DHT22;2661;50.786;12.728;2023-07-13T03:48:13;17.80;1.00
5276;DHT22;2661;50.786;12.728;2023-07-13T03:50:40;17.90;1.00
5276;DHT22;2661;50.786;12.728;2023-07-13T03:53:07;17.80;1.00
5276;DHT22;2661;50.786;12.728;2023-07-13T03:55:33;17.80;1.00
5276;DHT22;2661;50.786;12.728;2023-07-13T03:58:23;17.80;1.00
5276;DHT22;2661;50.786;12.728;2023-07-13T04:00:46;17.80;99.90
5276;DHT22;2661;50.786;12.728;2023-07-13T04:03:13;17.60;1.00
5276;DHT22;2661;50.786;12.728;2023-07-13T04:05:40;17.60;1.00
5276;DHT22;2661;50.786;12.728;2023-07-13T04:08:07;17.50;1.00
5276;DHT22;2661;50.786;12.728;2023-07-13T04:10:33;17.50;99.90
5276;DHT22;2661;50.786;12.728;2023-07-13T04:13:00;17.50;1.00
5276;DHT22;2661;50.786;12.728;2023-07-13T04:15:29;17.40;1.00
5276;DHT22;2661;50.786;12.728;2023-07-13T04:17:55;17.40;1.00
5276;DHT22;2661;50.786;12.728;2023-07-13T04:20:22;17.40;1.00
5276;DHT22;2661;50.786;12.728;2023-07-13T04:22:49;17.30;99.90
5276;DHT22;2661;50.786;12.728;2023-07-13T04:25:15;17.30;1.00
5276;DHT22;2661;50.786;12.728;2023-07-13T04:27:42;17.30;41.90
5276;DHT22;2661;50.786;12.728;2023-07-13T04:30:09;17.40;1.00
5276;DHT22;2661;50.786;12.728;2023-07-13T04:32:35;17.30;1.00
5276;DHT22;2661;50.786;12.728;2023-07-13T04:35:02;17.30;1.00
5276;DHT22;2661;50.786;12.728;2023-07-13T04:37:28;17.30;1.00
5276;DHT22;2661;50.786;12.728;2023-07-13T04:39:55;17.30;1.00
5276;DHT22;2661;50.786;12.728;2023-07-13T04:42:22;17.40;1.00
5276;DHT22;2661;50.786;12.728;2023-07-13T04:44:49;17.40;1.00
5276;DHT22;2661;50.786;12.728;2023-07-13T04:47:15;17.40;1.00
5276;DHT22;2661;50.786;12.728;2023-07-13T04:49:42;17.40;1.00
5276;DHT22;2661;50.786;12.728;2023-07-13T04:52:09;17.50;1.00
5276;DHT22;2661;50.786;12.728;2023-07-13T04:54:35;17.60;1.00
5276;DHT22;2661;50.786;12.728;2023-07-13T04:57:03;17.70;1.00
5276;DHT22;2661;50.786;12.728;2023-07-13T04:59:33;17.80;1.00
5276;DHT22;2661;50.786;12.728;2023-07-13T05:01:59;17.80;1.00
5276;DHT22;2661;50.786;12.728;2023-07-13T05:04:27;17.80;1.00
5276;DHT22;2661;50.786;12.728;2023-07-13T05:06:54;17.80;1.00
5276;DHT22;2661;50.786;12.728;2023-07-13T05:09:21;17.80;1.00
5276;DHT22;2661;50.786;12.728;2023-07-13T05:11:47;17.80;1.00
5276;DHT22;2661;50.786;12.728;2023-07-13T05:14:14;17.80;1.00
5276;DHT22;2661;50.786;12.728;2023-07-13T05:16:43;17.80;1.00
5276;DHT22;2661;50.786;12.728;2023-07-13T05:19:09;17.70;1.00
5276;DHT22;2661;50.786;12.728;2023-07-13T05:21:36;17.80;1.00
5276;DHT22;2661;50.786;12.728;2023-07-13T05:24:02;17.80;1.00
5276;DHT22;2661;50.786;12.728;2023-07-13T05:26:49;17.90;1.00
5276;DHT22;2661;50.786;12.728;2023-07-13T05:29:15;17.90;1.00
5276;DHT22;2661;50.786;12.728;2023-07-13T05:31:42;18.10;1.00
5276;DHT22;2661;50.786;12.728;2023-07-13T05:34:08;18.20;1.00
5276;DHT22;2661;50.786;12.728;2023-07-13T05:36:35;18.40;1.00
5276;DHT22;2661;50.786;12.728;2023-07-13T05:39:02;18.50;1.00
5276;DHT22;2661;50.786;12.728;2023-07-13T05:41:29;18.80;1.00
5276;DHT22;2661;50.786;12.728;2023-07-13T05:43:56;18.80;1.00
5276;DHT22;2661;50.786;12.728;2023-07-13T05:46:23;18.80;1.00
5276;DHT22;2661;50.786;12.728;2023-07-13T05:48:49;18.90;1.00
5276;DHT22;2661;50.786;12.728;2023-07-13T05:51:16;18.90;42.00
5276;DHT22;2661;50.786;12.728;2023-07-13T05:53:42;18.80;65.20
5276;DHT22;2661;50.786;12.728;2023-07-13T05:56:09;18.80;1.00
5276;DHT22;2661;50.786;12.728;2023-07-13T05:58:36;18.80;1.00
5276;DHT22;2661;50.786;12.728;2023-07-13T06:01:06;18.70;1.00
5276;DHT22;2661;50.786;12.728;2023-07-13T06:03:33;18.70;1.00
5276;DHT22;2661;50.786;12.728;2023-07-13T06:06:00;18.70;14.60
5276;DHT22;2661;50.786;12.728;2023-07-13T06:08:27;18.90;14.80
5276;DHT22;2661;50.786;12.728;2023-07-13T06:10:54;19.00;26.10
5276;DHT22;2661;50.786;12.728;2023-07-13T06:13:20;19.10;1.00
5276;DHT22;2661;50.786;12.728;2023-07-13T06:15:48;19.30;34.60
5276;DHT22;2661;50.786;12.728;2023-07-13T06:18:14;19.40;7.60
5276;DHT22;2661;50.786;12.728;2023-07-13T06:20:41;19.50;1.00
5276;DHT22;2661;50.786;12.728;2023-07-13T06:23:08;19.50;1.00
5276;DHT22;2661;50.786;12.728;2023-07-13T06:25:34;19.40;1.00
5276;DHT22;2661;50.786;12.728;2023-07-13T06:28:01;19.30;1.00
5276;DHT22;2661;50.786;12.728;2023-07-13T06:30:28;19.30;1.00
5276;DHT22;2661;50.786;12.728;2023-07-13T06:32:55;19.20;1.00
5276;DHT22;2661;50.786;12.728;2023-07-13T06:35:22;19.20;1.00
5276;DHT22;2661;50.786;12.728;2023-07-13T06:37:48;19.20;1.00
5276;DHT22;2661;50.786;12.728;2023-07-13T06:40:15;19.20;1.00
5276;DHT22;2661;50.786;12.728;2023-07-13T06:42:41;19.30;1.00
5276;DHT22;2661;50.786;12.728;2023-07-13T06:45:08;19.30;99.90
5276;DHT22;2661;50.786;12.728;2023-07-13T06:47:35;19.40;1.00
5276;DHT22;2661;50.786;12.728;2023-07-13T06:50:01;19.50;1.00
5276;DHT22;2661;50.786;12.728;2023-07-13T06:52:28;19.60;1.00
5276;DHT22;2661;50.786;12.728;2023-07-13T06:54:55;19.80;1.00
5276;DHT22;2661;50.786;12.728;2023-07-13T06:57:21;19.90;1.00
5276;DHT22;2661;50.786;12.728;2023-07-13T06:59:48;20.10;1.00
5276;DHT22;2661;50.786;12.728;2023-07-13T07:02:14;20.20;1.00
5276;DHT22;2661;50.786;12.728;2023-07-13T07:04:41;20.30;1.00
5276;DHT22;2661;50.786;12.728;2023-07-13T07:07:07;20.40;24.30
5276;DHT22;2661;50.786;12.728;2023-07-13T07:09:34;20.40;1.00
5276;DHT22;2661;50.786;12.728;2023-07-13T07:12:01;20.30;48.50
5276;DHT22;2661;50.786;12.728;2023-07-13T07:14:30;20.40;49.10
5276;DHT22;2661;50.786;12.728;2023-07-13T07:16:56;20.40;1.00
5276;DHT22;2661;50.786;12.728;2023-07-13T07:19:25;20.40;1.00
5276;DHT22;2661;50.786;12.728;2023-07-13T07:21:52;20.50;1.00
5276;DHT22;2661;50.786;12.728;2023-07-13T07:24:18;20.50;1.00
5276;DHT22;2661;50.786;12.728;2023-07-13T07:26:45;20.50;1.00
5276;DHT22;2661;50.786;12.728;2023-07-13T07:29:14;20.50;1.00
5276;DHT22;2661;50.786;12.728;2023-07-13T07:31:44;20.50;1.00
5276;DHT22;2661;50.786;12.728;2023-07-13T07:34:13;20.60;1.00
5276;DHT22;2661;50.786;12.728;2023-07-13T07:36:40;20.70;1.00
5276;DHT22;2661;50.786;12.728;2023-07-13T07:39:09;20.70;1.00
5276;DHT22;2661;50.786;12.728;2023-07-13T07:41:36;20.80;1.00
5276;DHT22;2661;50.786;12.728;2023-07-13T07:44:06;20.90;1.00
5276;DHT22;2661;50.786;12.728;2023-07-13T07:46:34;20.90;1.00
5276;DHT22;2661;50.786;12.728;2023-07-13T07:49:00;21.00;1.00
5276;DHT22;2661;50.786;12.728;2023-07-13T07:51:27;21.00;1.00
5276;DHT22;2661;50.786;12.728;2023-07-13T07:53:54;21.00;1.00
5276;DHT22;2661;50.786;12.728;2023-07-13T07:56:20;21.00;1.00
5276;DHT22;2661;50.786;12.728;2023-07-13T07:58:50;20.90;1.00
5276;DHT22;2661;50.786;12.728;2023-07-13T08:01:19;21.00;1.00
5276;DHT22;2661;50.786;12.728;2023-07-13T08:03:49;20.90;1.00
5276;DHT22;2661;50.786;12.728;2023-07-13T08:06:18;20.80;1.20
5276;DHT22;2661;50.786;12.728;2023-07-13T08:08:49;20.90;55.20
5276;DHT22;2661;50.786;12.728;2023-07-13T08:11:16;20.80;1.00
5276;DHT22;2661;50.786;12.728;2023-07-13T08:13:45;20.80;1.00
5276;DHT22;2661;50.786;12.728;2023-07-13T08:16:12;20.70;1.00
5276;DHT22;2661;50.786;12.728;2023-07-13T08:18:39;20.50;1.00
5276;DHT22;2661;50.786;12.728;2023-07-13T08:21:06;20.50;1.00
5276;DHT22;2661;50.786;12.728;2023-07-13T08:23:33;20.50;1.00
5276;DHT22;2661;50.786;12.728;2023-07-13T08:25:59;20.50;1.00
5276;DHT22;2661;50.786;12.728;2023-07-13T08:28:28;20.60;1.00
5276;DHT22;2661;50.786;12.728;2023-07-13T08:30:54;20.70;1.00
5276;DHT22;2661;50.786;12.728;2023-07-13T08:33:21;20.70;1.00
5276;DHT22;2661;50.786;12.728;2023-07-13T08:35:50;20.70;1.00
5276;DHT22;2661;50.786;12.728;2023-07-13T08:38:17;20.80;1.00
5276;DHT22;2661;50.786;12.728;2023-07-13T08:40:45;20.80;1.00
5276;DHT22;2661;50.786;12.728;2023-07-13T08:43:16;20.80;1.00
5276;DHT22;2661;50.786;12.728;2023-07-13T08:45:44;21.00;1.00
5276;DHT22;2661;50.786;12.728;2023-07-13T08:48:20;21.20;1.00
5276;DHT22;2661;50.786;12.728;2023-07-13T08:50:55;21.10;1.00
5276;DHT22;2661;50.786;12.728;2023-07-13T08:53:40;21.20;1.00
5276;DHT22;2661;50.786;12.728;2023-07-13T08:56:09;21.30;1.00
5276;DHT22;2661;50.786;12.728;2023-07-13T08:58:37;21.40;1.00
5276;DHT22;2661;50.786;12.728;2023-07-13T09:01:14;21.50;1.00
5276;DHT22;2661;50.786;12.728;2023-07-13T09:03:46;21.70;1.00
5276;DHT22;2661;50.786;12.728;2023-07-13T09:06:16;21.90;1.00
5276;DHT22;2661;50.786;12.728;2023-07-13T09:08:46;22.30;1.00
5276;DHT22;2661;50.786;12.728;2023-07-13T09:16:23;22.90;1.00
5276;DHT22;2661;50.786;12.728;2023-07-13T09:18:51;22.90;1.00
5276;DHT22;2661;50.786;12.728;2023-07-13T09:21:22;22.90;1.00
5276;DHT22;2661;50.786;12.728;2023-07-13T09:23:52;22.80;1.00
5276;DHT22;2661;50.786;12.728;2023-07-13T09:26:21;22.70;1.00
5276;DHT22;2661;50.786;12.728;2023-07-13T09:28:48;22.50;1.00
5276;DHT22;2661;50.786;12.728;2023-07-13T09:31:26;22.40;1.00
5276;DHT22;2661;50.786;12.728;2023-07-13T09:33:53;22.10;1.00
5276;DHT22;2661;50.786;12.728;2023-07-13T09:36:27;22.00;1.00
5276;DHT22;2661;50.786;12.728;2023-07-13T09:41:29;21.80;1.00
5276;DHT22;2661;50.786;12.728;2023-07-13T09:44:09;21.80;1.00
5276;DHT22;2661;50.786;12.728;2023-07-13T09:46:36;21.70;1.00
5276;DHT22;2661;50.786;12.728;2023-07-13T09:49:04;21.70;1.00
5276;DHT22;2661;50.786;12.728;2023-07-13T09:51:31;21.70;99.90
5276;DHT22;2661;50.786;12.728;2023-07-13T09:53:57;21.80;99.90
5276;DHT22;2661;50.786;12.728;2023-07-13T09:56:26;21.80;99.90
5276;DHT22;2661;50.786;12.728;2023-07-13T09:58:53;21.90;99.90
5276;DHT22;2661;50.786;12.728;2023-07-13T10:01:33;21.90;99.90
5276;DHT22;2661;50.786;12.728;2023-07-13T10:04:01;21.90;99.90
5276;DHT22;2661;50.786;12.728;2023-07-13T10:06:28;21.90;99.90
5276;DHT22;2661;50.786;12.728;2023-07-13T10:08:55;22.00;99.90
5276;DHT22;2661;50.786;12.728;2023-07-13T10:11:24;22.10;99.90
5276;DHT22;2661;50.786;12.728;2023-07-13T10:13:59;22.30;99.90
5276;DHT22;2661;50.786;12.728;2023-07-13T10:16:27;22.40;99.90
5276;DHT22;2661;50.786;12.728;2023-07-13T10:19:00;22.50;21.60
5276;DHT22;2661;50.786;12.728;2023-07-13T10:21:30;22.50;99.90
5276;DHT22;2661;50.786;12.728;2023-07-13T10:24:14;22.60;99.90
5276;DHT22;2661;50.786;12.728;2023-07-13T10:26:45;22.60;99.90
5276;DHT22;2661;50.786;12.728;2023-07-13T10:29:12;22.60;99.90
5276;DHT22;2661;50.786;12.728;2023-07-13T10:31:40;22.80;99.90
5276;DHT22;2661;50.786;12.728;2023-07-13T10:34:09;22.80;99.90
5276;DHT22;2661;50.786;12.728;2023-07-13T10:36:40;22.80;99.90
5276;DHT22;2661;50.786;12.728;2023-07-13T10:39:07;22.80;90.10
5276;DHT22;2661;50.786;12.728;2023-07-13T10:41:38;22.90;99.90
5276;DHT22;2661;50.786;12.728;2023-07-13T10:44:06;23.00;99.90
5276;DHT22;2661;50.786;12.728;2023-07-13T10:46:33;23.10;99.90
5276;DHT22;2661;50.786;12.728;2023-07-13T10:49:02;23.10;1.00
5276;DHT22;2661;50.786;12.728;2023-07-13T10:51:31;23.20;1.00
5276;DHT22;2661;50.786;12.728;2023-07-13T10:54:11;23.30;1.00
5276;DHT22;2661;50.786;12.728;2023-07-13T10:56:46;23.40;1.00
5276;DHT22;2661;50.786;12.728;2023-07-13T11:02:06;23.70;1.00
5276;DHT22;2661;50.786;12.728;2023-07-13T11:04:40;23.80;1.00
5276;DHT22;2661;50.786;12.728;2023-07-13T11:07:27;23.70;1.00
5276;DHT22;2661;50.786;12.728;2023-07-13T11:09:58;23.60;95.60
5276;DHT22;2661;50.786;12.728;2023-07-13T11:13:28;23.50;1.00
5276;DHT22;2661;50.786;12.728;2023-07-13T11:15:12;23.40;1.00
5276;DHT22;2661;50.786;12.728;2023-07-13T11:17:50;23.30;1.00
5276;DHT22;2661;50.786;12.728;2023-07-13T11:22:47;23.20;1.00
5276;DHT22;2661;50.786;12.728;2023-07-13T11:28:38;23.30;48.40
5276;DHT22;2661;50.786;12.728;2023-07-13T11:35:50;23.60;1.00
5276;DHT22;2661;50.786;12.728;2023-07-13T11:38:19;23.60;1.00
5276;DHT22;2661;50.786;12.728;2023-07-13T11:40:47;23.60;1.00
5276;DHT22;2661;50.786;12.728;2023-07-13T11:43:20;23.60;1.00
5276;DHT22;2661;50.786;12.728;2023-07-13T11:45:50;23.70;1.00
5276;DHT22;2661;50.786;12.728;2023-07-13T11:48:28;23.60;1.00
5276;DHT22;2661;50.786;12.728;2023-07-13T11:51:03;23.60;1.00
5276;DHT22;2661;50.786;12.728;2023-07-13T11:53:37;23.60;1.00
5276;DHT22;2661;50.786;12.728;2023-07-13T11:56:04;23.50;1.00
5276;DHT22;2661;50.786;12.728;2023-07-13T11:58:31;23.30;1.00
5276;DHT22;2661;50.786;12.728;2023-07-13T12:00:59;23.20;1.00
5276;DHT22;2661;50.786;12.728;2023-07-13T12:03:28;23.10;1.00
5276;DHT22;2661;50.786;12.728;2023-07-13T12:08:25;22.90;1.00
5276;DHT22;2661;50.786;12.728;2023-07-13T12:11:25;22.90;1.00
5276;DHT22;2661;50.786;12.728;2023-07-13T12:13:45;22.90;1.00
5276;DHT22;2661;50.786;12.728;2023-07-13T12:16:17;23.00;1.00
5276;DHT22;2661;50.786;12.728;2023-07-13T12:18:48;23.20;1.00
5276;DHT22;2661;50.786;12.728;2023-07-13T12:21:19;23.30;1.00
5276;DHT22;2661;50.786;12.728;2023-07-13T12:23:47;23.30;1.00
5276;DHT22;2661;50.786;12.728;2023-07-13T12:26:15;23.50;1.00
5276;DHT22;2661;50.786;12.728;2023-07-13T12:28:46;23.60;1.00
5276;DHT22;2661;50.786;12.728;2023-07-13T12:33:58;23.90;1.00
5276;DHT22;2661;50.786;12.728;2023-07-13T12:36:25;24.00;1.00
5276;DHT22;2661;50.786;12.728;2023-07-13T12:38:51;24.10;1.00
5276;DHT22;2661;50.786;12.728;2023-07-13T12:41:18;24.10;99.90
5276;DHT22;2661;50.786;12.728;2023-07-13T12:43:45;24.00;95.70
5276;DHT22;2661;50.786;12.728;2023-07-13T12:46:19;23.90;99.30
5276;DHT22;2661;50.786;12.728;2023-07-13T12:48:48;23.90;99.30
5276;DHT22;2661;50.786;12.728;2023-07-13T12:51:26;23.90;48.50
5276;DHT22;2661;50.786;12.728;2023-07-13T12:53:56;23.70;1.00
5276;DHT22;2661;50.786;12.728;2023-07-13T12:56:24;23.70;1.00
5276;DHT22;2661;50.786;12.728;2023-07-13T12:58:58;23.90;1.00
5276;DHT22;2661;50.786;12.728;2023-07-13T13:01:27;23.90;1.00
5276;DHT22;2661;50.786;12.728;2023-07-13T13:03:53;23.90;1.00
5276;DHT22;2661;50.786;12.728;2023-07-13T13:06:23;23.90;99.00
5276;DHT22;2661;50.786;12.728;2023-07-13T13:08:52;23.90;70.90
5276;DHT22;2661;50.786;12.728;2023-07-13T13:11:19;24.00;1.00
5276;DHT22;2661;50.786;12.728;2023-07-13T13:13:46;24.00;1.00
5276;DHT22;2661;50.786;12.728;2023-07-13T13:18:49;24.10;1.00
5276;DHT22;2661;50.786;12.728;2023-07-13T13:21:17;24.10;1.00
5276;DHT22;2661;50.786;12.728;2023-07-13T13:23:44;24.30;1.00
5276;DHT22;2661;50.786;12.728;2023-07-13T13:26:13;24.50;1.00
5276;DHT22;2661;50.786;12.728;2023-07-13T13:28:44;24.50;1.00
5276;DHT22;2661;50.786;12.728;2023-07-13T13:31:11;24.80;1.00
5276;DHT22;2661;50.786;12.728;2023-07-13T13:33:39;24.80;1.00
5276;DHT22;2661;50.786;12.728;2023-07-13T13:36:13;24.80;1.00
5276;DHT22;2661;50.786;12.728;2023-07-13T13:38:40;24.60;1.00
5276;DHT22;2661;50.786;12.728;2023-07-13T13:41:07;24.30;1.00
5276;DHT22;2661;50.786;12.728;2023-07-13T13:43:36;24.30;1.00
5276;DHT22;2661;50.786;12.728;2023-07-13T13:46:05;24.20;1.00
5276;DHT22;2661;50.786;12.728;2023-07-13T13:48:38;24.20;1.00
5276;DHT22;2661;50.786;12.728;2023-07-13T13:51:12;24.30;1.00
5276;DHT22;2661;50.786;12.728;2023-07-13T13:53:39;24.50;1.00
5276;DHT22;2661;50.786;12.728;2023-07-13T13:56:06;24.60;1.00
5276;DHT22;2661;50.786;12.728;2023-07-13T13:58:33;24.50;1.00
5276;DHT22;2661;50.786;12.728;2023-07-13T14:01:00;24.60;1.00
5276;DHT22;2661;50.786;12.728;2023-07-13T14:03:27;24.60;1.00
5276;DHT22;2661;50.786;12.728;2023-07-13T14:05:54;24.80;1.00
5276;DHT22;2661;50.786;12.728;2023-07-13T14:08:21;24.80;1.00
5276;DHT22;2661;50.786;12.728;2023-07-13T14:10:48;24.80;1.00
5276;DHT22;2661;50.786;12.728;2023-07-13T14:13:16;25.00;1.00
5276;DHT22;2661;50.786;12.728;2023-07-13T14:15:44;25.00;1.00
5276;DHT22;2661;50.786;12.728;2023-07-13T14:18:11;24.80;1.00
5276;DHT22;2661;50.786;12.728;2023-07-13T14:20:38;24.60;99.90
5276;DHT22;2661;50.786;12.728;2023-07-13T14:23:05;24.50;1.00
5276;DHT22;2661;50.786;12.728;2023-07-13T14:25:31;24.30;1.00
5276;DHT22;2661;50.786;12.728;2023-07-13T14:27:58;24.30;99.90
5276;DHT22;2661;50.786;12.728;2023-07-13T14:30:27;24.30;1.00
5276;DHT22;2661;50.786;12.728;2023-07-13T14:32:54;24.40;99.90
5276;DHT22;2661;50.786;12.728;2023-07-13T14:35:21;24.30;1.00
5276;DHT22;2661;50.786;12.728;2023-07-13T14:37:48;24.30;1.00
5276;DHT22;2661;50.786;12.728;2023-07-13T14:40:16;24.50;1.00
5276;DHT22;2661;50.786;12.728;2023-07-13T14:42:43;24.70;1.00
5276;DHT22;2661;50.786;12.728;2023-07-13T14:45:14;24.80;1.00
5276;DHT22;2661;50.786;12.728;2023-07-13T14:47:41;24.80;1.00
5276;DHT22;2661;50.786;12.728;2023-07-13T14:50:11;24.70;1.00
5276;DHT22;2661;50.786;12.728;2023-07-13T14:52:38;24.80;1.00
5276;DHT22;2661;50.786;12.728;2023-07-13T14:55:10;24.90;1.00
5276;DHT22;2661;50.786;12.728;2023-07-13T14:57:36;24.90;1.00
5276;DHT22;2661;50.786;12.728;2023-07-13T15:00:03;24.70;1.00
5276;DHT22;2661;50.786;12.728;2023-07-13T15:02:31;24.70;97.60
5276;DHT22;2661;50.786;12.728;2023-07-13T15:05:00;24.80;1.00
5276;DHT22;2661;50.786;12.728;2023-07-13T15:07:27;24.90;1.00
5276;DHT22;2661;50.786;12.728;2023-07-13T15:09:54;24.80;1.00
5276;DHT22;2661;50.786;12.728;2023-07-13T15:12:21;24.70;1.00
5276;DHT22;2661;50.786;12.728;2023-07-13T15:14:48;24.80;1.00
5276;DHT22;2661;50.786;12.728;2023-07-13T15:17:22;24.80;99.90
5276;DHT22;2661;50.786;12.728;2023-07-13T15:19:50;24.90;53.80
5276;DHT22;2661;50.786;12.728;2023-07-13T15:22:17;24.90;99.90
5276;DHT22;2661;50.786;12.728;2023-07-13T15:24:43;24.90;99.90
5276;DHT22;2661;50.786;12.728;2023-07-13T15:27:13;24.90;21.00
5276;DHT22;2661;50.786;12.728;2023-07-13T15:29:40;24.80;1.00
5276;DHT22;2661;50.786;12.728;2023-07-13T15:32:11;24.70;21.40
5276;DHT22;2661;50.786;12.728;2023-07-13T15:34:38;24.60;9.80
5276;DHT22;2661;50.786;12.728;2023-07-13T15:37:11;24.60;1.00
5276;DHT22;2661;50.786;12.728;2023-07-13T15:39:38;24.60;1.00
5276;DHT22;2661;50.786;12.728;2023-07-13T15:42:05;24.70;1.00
5276;DHT22;2661;50.786;12.728;2023-07-13T15:44:31;25.00;99.90
5276;DHT22;2661;50.786;12.728;2023-07-13T15:46:58;25.30;14.50
5276;DHT22;2661;50.786;12.728;2023-07-13T15:49:27;25.60;5.30
5276;DHT22;2661;50.786;12.728;2023-07-13T15:51:53;25.70;29.10
5276;DHT22;2661;50.786;12.728;2023-07-13T15:54:21;25.50;49.30
5276;DHT22;2661;50.786;12.728;2023-07-13T15:56:51;25.10;22.20
5276;DHT22;2661;50.786;12.728;2023-07-13T15:59:18;24.80;7.70
5276;DHT22;2661;50.786;12.728;2023-07-13T16:01:45;24.70;99.90
5276;DHT22;2661;50.786;12.728;2023-07-13T16:04:13;24.50;1.00
5276;DHT22;2661;50.786;12.728;2023-07-13T16:06:40;24.60;1.00
5276;DHT22;2661;50.786;12.728;2023-07-13T16:09:10;24.80;1.00
5276;DHT22;2661;50.786;12.728;2023-07-13T16:11:40;25.00;99.90
5276;DHT22;2661;50.786;12.728;2023-07-13T16:14:08;24.90;99.90
5276;DHT22;2661;50.786;12.728;2023-07-13T16:16:37;24.80;99.90
5276;DHT22;2661;50.786;12.728;2023-07-13T16:19:05;24.50;99.90
5276;DHT22;2661;50.786;12.728;2023-07-13T16:21:32;24.50;53.40
5276;DHT22;2661;50.786;12.728;2023-07-13T16:24:00;24.50;13.10
5276;DHT22;2661;50.786;12.728;2023-07-13T16:26:34;24.60;1.00
5276;DHT22;2661;50.786;12.728;2023-07-13T16:29:13;24.50;38.50
5276;DHT22;2661;50.786;12.728;2023-07-13T16:31:40;24.50;82.50
5276;DHT22;2661;50.786;12.728;2023-07-13T16:34:07;24.60;77.10
5276;DHT22;2661;50.786;12.728;2023-07-13T16:36:35;24.60;1.00